Time;durP1;ratioP1;P1;durP2;ratioP2;P2;SDS_P1;SDS_P2;PMS_P1;PMS_P2;Temp;Humidity;BMP_temperature;BMP_pressure;BME280_temperature;BME280_humidity;BME280_pressure;Samples;Min_cycle;Max_cycle;Signal;HPM_P1;HPM_P2
2023/05/29 00:01:13;;;;;;;11.10;3.37;;;11.50;1.00;;;;;;5007039;28;20189;-54
2023/05/29 00:03:38;;;;;;;12.93;3.73;;;11.40;1.00;;;;;;5007911;28;20217;-56
2023/05/29 00:06:05;;;;;;;12.83;3.30;;;11.40;1.00;;;;;;5007841;28;20184;-55
2023/05/29 00:08:31;;;;;;;14.43;4.40;;;11.30;1.00;;;;;;4995375;28;20200;-54
2023/05/29 00:10:57;;;;;;;15.57;4.10;;;11.30;1.00;;;;;;5007357;28;20574;-54
2023/05/29 00:13:23;;;;;;;19.60;3.30;;;11.20;1.00;;;;;;5003912;28;20181;-55
2023/05/29 00:15:48;;;;;;;16.77;3.10;;;11.10;1.00;;;;;;5009493;28;20535;-55
2023/05/29 00:18:14;;;;;;;19.93;4.37;;;11.10;1.00;;;;;;5002424;28;20541;-55
2023/05/29 00:20:40;;;;;;;11.00;2.60;;;11.10;1.00;;;;;;5006120;28;20269;-54
2023/05/29 00:23:06;;;;;;;18.57;3.40;;;11.20;1.00;;;;;;5008657;28;20238;-54
2023/05/29 00:25:32;;;;;;;9.67;3.03;;;11.20;1.00;;;;;;5003834;28;20889;-55
2023/05/29 00:27:58;;;;;;;16.50;3.20;;;11.30;1.00;;;;;;5012376;28;20530;-54
2023/05/29 00:30:23;;;;;;;17.80;3.53;;;11.10;1.00;;;;;;5006305;28;20644;-54
2023/05/29 00:32:49;;;;;;;10.23;3.90;;;11.00;1.00;;;;;;5004686;28;20471;-55
2023/05/29 00:35:15;;;;;;;16.73;3.83;;;10.90;1.00;;;;;;5008461;28;20243;-55
2023/05/29 00:37:40;;;;;;;12.50;3.10;;;10.90;1.00;;;;;;5008827;28;20184;-54
2023/05/29 00:40:07;;;;;;;16.37;4.10;;;10.90;1.00;;;;;;5006080;28;20520;-55
2023/05/29 00:42:32;;;;;;;14.10;3.80;;;10.70;1.00;;;;;;5008367;28;20193;-55
2023/05/29 00:44:58;;;;;;;14.17;3.33;;;10.70;1.00;;;;;;5008952;28;20474;-54
2023/05/29 00:47:24;;;;;;;19.70;4.10;;;10.60;1.00;;;;;;5004117;28;20200;-55
2023/05/29 00:49:51;;;;;;;14.83;4.10;;;10.50;1.00;;;;;;5005769;28;20188;-55
2023/05/29 00:52:18;;;;;;;18.97;3.60;;;10.50;1.00;;;;;;5002942;28;20503;-55
2023/05/29 00:54:46;;;;;;;10.63;3.13;;;10.40;1.00;;;;;;5005932;28;21016;-55
2023/05/29 00:57:13;;;;;;;12.50;3.17;;;10.40;1.00;;;;;;5003927;28;20475;-55
2023/05/29 00:59:40;;;;;;;17.70;3.73;;;10.30;1.00;;;;;;5010144;28;20550;-55
2023/05/29 01:02:06;;;;;;;15.13;3.47;;;10.10;1.00;;;;;;5006452;28;20506;-54
2023/05/29 01:04:33;;;;;;;13.87;3.40;;;10.00;1.00;;;;;;5003406;28;20456;-55
2023/05/29 01:07:00;;;;;;;15.73;2.70;;;9.90;1.00;;;;;;5005537;28;20203;-55
2023/05/29 01:09:26;;;;;;;20.40;3.10;;;9.80;1.00;;;;;;5001241;28;20448;-55
2023/05/29 01:12:10;;;;;;;18.60;3.50;;;9.80;1.00;;;;;;5005325;28;20520;-55
2023/05/29 01:14:57;;;;;;;19.50;3.37;;;9.70;1.00;;;;;;5005557;28;20211;-55
2023/05/29 01:18:01;;;;;;;16.83;3.13;;;9.60;1.00;;;;;;5005068;28;20453;-55
2023/05/29 01:20:30;;;;;;;15.90;3.20;;;9.50;1.00;;;;;;5004061;28;20454;-55
2023/05/29 01:23:40;;;;;;;17.60;3.67;;;9.50;1.00;;;;;;4998492;28;20857;-55
2023/05/29 01:26:20;;;;;;;10.30;3.13;;;9.40;1.00;;;;;;5004945;28;20768;-54
2023/05/29 01:28:52;;;;;;;21.60;3.60;;;9.20;1.00;;;;;;5007413;28;20455;-54
2023/05/29 01:31:22;;;;;;;12.93;3.40;;;9.10;1.00;;;;;;5006846;28;20846;-55
2023/05/29 01:33:56;;;;;;;11.43;3.30;;;9.10;1.00;;;;;;5007706;28;20454;-55
2023/05/29 01:36:22;;;;;;;14.73;3.23;;;9.00;1.00;;;;;;5007165;28;20541;-54
2023/05/29 01:38:50;;;;;;;20.87;4.07;;;8.90;1.00;;;;;;5005310;28;20451;-55
2023/05/29 01:41:17;;;;;;;13.40;3.70;;;8.90;1.00;;;;;;5007011;28;20500;-54
2023/05/29 01:43:45;;;;;;;13.07;2.97;;;8.80;1.00;;;;;;5001902;28;20489;-56
2023/05/29 01:46:12;;;;;;;15.53;3.40;;;8.70;1.00;;;;;;5005469;28;20493;-55
2023/05/29 01:48:38;;;;;;;13.83;3.33;;;8.70;1.00;;;;;;5002179;28;20470;-55
2023/05/29 01:51:04;;;;;;;12.33;2.40;;;8.50;1.00;;;;;;5002158;28;20551;-55
2023/05/29 01:53:30;;;;;;;21.57;3.57;;;8.50;1.00;;;;;;5006125;28;20235;-54
2023/05/29 01:55:55;;;;;;;10.77;2.97;;;8.50;1.00;;;;;;5001404;28;20290;-55
2023/05/29 01:58:23;;;;;;;13.97;3.57;;;8.40;1.00;;;;;;5008431;28;20232;-54
2023/05/29 02:00:49;;;;;;;16.50;3.40;;;8.30;1.00;;;;;;5011017;28;20511;-55
2023/05/29 02:03:15;;;;;;;15.60;2.90;;;8.20;1.00;;;;;;5004192;28;20442;-55
2023/05/29 02:05:40;;;;;;;11.60;3.63;;;8.20;1.30;;;;;;5002321;28;20189;-54
2023/05/29 02:08:06;;;;;;;24.17;3.93;;;8.20;4.50;;;;;;5005397;28;20188;-55
2023/05/29 02:10:31;;;;;;;15.17;2.90;;;8.10;21.60;;;;;;5006953;28;20219;-59
2023/05/29 02:12:57;;;;;;;16.57;3.30;;;8.10;25.20;;;;;;5002525;28;20278;-55
2023/05/29 02:15:23;;;;;;;16.13;2.67;;;8.00;23.40;;;;;;5005095;28;20220;-54
2023/05/29 02:17:49;;;;;;;9.97;2.60;;;8.00;29.50;;;;;;5003411;28;20220;-55
2023/05/29 02:20:15;;;;;;;15.80;2.80;;;7.90;42.00;;;;;;5009059;28;20191;-54
2023/05/29 02:22:41;;;;;;;14.93;3.20;;;7.90;57.80;;;;;;4999066;28;20796;-54
2023/05/29 02:25:07;;;;;;;17.53;3.30;;;7.90;87.40;;;;;;5004240;28;20491;-55
2023/05/29 02:27:33;;;;;;;16.93;3.53;;;7.90;96.90;;;;;;5004483;28;20914;-55
2023/05/29 02:29:59;;;;;;;13.50;3.60;;;7.90;99.90;;;;;;5001433;28;20534;-55
2023/05/29 02:32:27;;;;;;;16.63;3.00;;;7.80;99.90;;;;;;5002451;28;20217;-55
2023/05/29 02:34:53;;;;;;;16.20;3.73;;;7.80;99.90;;;;;;5003072;28;20192;-55
2023/05/29 02:37:18;;;;;;;15.50;3.63;;;7.80;99.90;;;;;;5006162;28;20962;-54
2023/05/29 02:39:44;;;;;;;15.13;3.60;;;7.70;99.90;;;;;;5002948;28;20475;-54
2023/05/29 02:42:10;;;;;;;19.17;3.50;;;7.70;99.90;;;;;;4988308;28;20188;-55
2023/05/29 02:44:35;;;;;;;10.80;2.90;;;7.70;99.90;;;;;;5003222;28;20192;-55
2023/05/29 02:47:01;;;;;;;14.23;3.10;;;7.70;99.90;;;;;;5003368;28;20544;-54
2023/05/29 02:49:26;;;;;;;12.87;3.03;;;7.70;99.90;;;;;;5004955;28;20188;-55
2023/05/29 02:51:56;;;;;;;10.57;3.40;;;7.70;99.90;;;;;;4999265;28;20228;-55
2023/05/29 02:54:23;;;;;;;18.10;3.50;;;7.70;99.90;;;;;;5007184;28;20196;-54
2023/05/29 02:56:49;;;;;;;15.80;3.40;;;7.60;99.90;;;;;;5000363;28;20962;-55
2023/05/29 02:59:14;;;;;;;19.10;3.80;;;7.60;99.90;;;;;;5006651;28;20469;-55
2023/05/29 03:01:40;;;;;;;19.57;3.83;;;7.60;99.90;;;;;;5002981;28;20188;-56
2023/05/29 03:04:06;;;;;;;17.90;3.30;;;7.60;99.90;;;;;;5008767;28;20188;-55
2023/05/29 03:06:32;;;;;;;22.40;3.57;;;7.50;99.90;;;;;;5002548;28;20207;-56
2023/05/29 03:08:59;;;;;;;20.97;3.90;;;7.50;99.90;;;;;;5009306;28;20439;-54
2023/05/29 03:11:25;;;;;;;21.07;3.77;;;7.50;99.90;;;;;;5001319;28;20260;-55
2023/05/29 03:13:50;;;;;;;14.47;3.37;;;7.50;99.90;;;;;;5006492;28;20535;-54
2023/05/29 03:16:16;;;;;;;17.23;3.50;;;7.50;99.90;;;;;;5003758;28;20189;-55
2023/05/29 03:18:42;;;;;;;17.60;3.77;;;7.50;99.90;;;;;;5002137;28;20188;-55
2023/05/29 03:21:07;;;;;;;13.13;3.67;;;7.50;99.90;;;;;;5003206;28;20208;-55
2023/05/29 03:23:33;;;;;;;26.20;3.97;;;7.40;99.90;;;;;;5002882;28;20561;-54
2023/05/29 03:25:58;;;;;;;17.07;3.50;;;7.40;99.90;;;;;;4995055;28;20243;-54
2023/05/29 03:28:24;;;;;;;22.40;4.30;;;7.40;99.90;;;;;;4999931;28;20220;-55
2023/05/29 03:30:51;;;;;;;14.80;3.50;;;7.50;99.90;;;;;;4998026;28;20208;-55
2023/05/29 03:33:17;;;;;;;18.83;2.90;;;7.50;99.90;;;;;;4998801;28;20691;-54
2023/05/29 03:35:42;;;;;;;14.67;3.60;;;7.60;99.90;;;;;;5001856;28;20480;-54
2023/05/29 03:38:08;;;;;;;21.30;4.27;;;7.60;99.90;;;;;;5002891;28;20185;-54
2023/05/29 03:40:33;;;;;;;16.60;5.20;;;7.60;99.90;;;;;;5006538;28;22812;-55
2023/05/29 03:42:59;;;;;;;26.93;3.63;;;7.60;99.90;;;;;;5003341;28;20217;-55
2023/05/29 03:45:25;;;;;;;21.67;3.83;;;7.60;99.90;;;;;;5001300;28;20192;-55
2023/05/29 03:47:51;;;;;;;17.27;4.23;;;7.70;99.90;;;;;;5004815;28;20193;-54
2023/05/29 03:50:16;;;;;;;17.23;3.17;;;7.70;99.90;;;;;;5004685;28;20423;-54
2023/05/29 03:52:42;;;;;;;16.83;3.43;;;7.70;99.90;;;;;;5006107;28;20619;-54
2023/05/29 03:55:12;;;;;;;24.57;3.70;;;7.80;99.90;;;;;;5001175;28;20217;-55
2023/05/29 03:57:40;;;;;;;14.47;3.50;;;7.80;99.90;;;;;;5005536;28;20800;-54
2023/05/29 04:00:10;;;;;;;24.13;3.80;;;7.80;99.90;;;;;;5007767;28;20450;-55
2023/05/29 04:02:40;;;;;;;13.00;3.40;;;7.90;99.90;;;;;;5004790;28;20956;-55
2023/05/29 04:05:06;;;;;;;25.73;3.87;;;7.90;99.90;;;;;;4995158;28;20438;-54
2023/05/29 04:07:38;;;;;;;17.80;3.40;;;7.90;99.90;;;;;;5003859;28;20801;-55
2023/05/29 04:10:07;;;;;;;19.43;3.67;;;7.90;99.90;;;;;;5007443;28;20451;-54
2023/05/29 04:12:33;;;;;;;16.43;3.53;;;8.00;99.90;;;;;;5002874;28;20484;-54
2023/05/29 04:14:59;;;;;;;13.07;4.00;;;8.00;99.90;;;;;;5002337;28;20448;-55
2023/05/29 04:17:25;;;;;;;17.00;3.70;;;8.10;99.90;;;;;;5004402;28;20488;-54
2023/05/29 04:19:50;;;;;;;25.30;4.53;;;8.10;99.90;;;;;;5009226;28;20440;-54
2023/05/29 04:22:16;;;;;;;19.17;3.87;;;8.20;99.90;;;;;;5007873;28;20647;-54
2023/05/29 04:24:42;;;;;;;26.13;3.80;;;8.20;94.00;;;;;;5002365;28;20189;-55
2023/05/29 04:27:11;;;;;;;20.63;3.87;;;8.20;90.80;;;;;;5006497;28;20655;-55
2023/05/29 04:29:40;;;;;;;22.90;3.47;;;8.20;87.60;;;;;;5004354;28;20450;-55
2023/05/29 04:32:06;;;;;;;18.77;3.90;;;8.30;94.10;;;;;;5001377;28;20546;-55
2023/05/29 04:34:31;;;;;;;19.90;3.20;;;8.40;82.10;;;;;;5004990;28;20886;-54
2023/05/29 04:36:58;;;;;;;20.73;3.37;;;8.50;63.20;;;;;;5001243;28;20184;-55
2023/05/29 04:39:24;;;;;;;15.73;3.63;;;8.60;33.40;;;;;;5009153;28;20191;-55
2023/05/29 04:41:51;;;;;;;16.20;3.20;;;8.60;4.90;;;;;;4998172;28;20445;-55
2023/05/29 04:44:17;;;;;;;16.83;3.53;;;8.80;2.30;;;;;;5001910;28;21211;-54
2023/05/29 04:46:44;;;;;;;20.67;4.33;;;8.90;1.00;;;;;;5000849;28;20475;-55
2023/05/29 04:49:10;;;;;;;14.00;3.27;;;9.00;1.00;;;;;;5001005;28;21073;-55
2023/05/29 04:51:36;;;;;;;14.70;3.63;;;9.20;1.00;;;;;;5001997;28;20497;-54
2023/05/29 04:54:02;;;;;;;16.63;3.50;;;9.30;1.00;;;;;;5005781;28;20443;-55
2023/05/29 04:56:28;;;;;;;20.10;4.00;;;9.40;1.00;;;;;;5003095;28;20248;-55
2023/05/29 04:58:54;;;;;;;23.20;4.20;;;9.60;1.00;;;;;;5007331;28;20437;-54
2023/05/29 05:01:19;;;;;;;32.50;3.50;;;9.80;1.00;;;;;;5009037;28;20685;-55
2023/05/29 05:03:45;;;;;;;17.97;3.70;;;9.90;1.00;;;;;;5004846;28;20767;-55
2023/05/29 05:06:12;;;;;;;15.03;3.90;;;9.90;1.00;;;;;;5009498;28;20691;-55
2023/05/29 05:08:38;;;;;;;16.83;4.20;;;10.00;1.00;;;;;;5012320;28;20266;-53
2023/05/29 05:11:06;;;;;;;12.43;3.93;;;9.90;1.00;;;;;;5003254;28;20843;-55
2023/05/29 05:13:31;;;;;;;23.17;3.50;;;10.00;1.00;;;;;;5008358;28;20496;-55
2023/05/29 05:15:57;;;;;;;16.77;4.30;;;10.00;1.00;;;;;;5002732;28;20972;-55
2023/05/29 05:18:23;;;;;;;18.17;3.93;;;10.10;1.00;;;;;;5004512;28;20188;-55
2023/05/29 05:20:48;;;;;;;29.23;4.60;;;10.20;1.00;;;;;;5008548;28;20649;-55
2023/05/29 05:23:14;;;;;;;20.10;5.40;;;10.30;1.00;;;;;;5006723;28;20189;-54
2023/05/29 05:25:39;;;;;;;14.87;3.40;;;10.60;1.00;;;;;;5008708;28;20203;-54
2023/05/29 05:28:05;;;;;;;26.87;4.70;;;10.70;1.00;;;;;;5002463;28;20234;-55
2023/05/29 05:30:31;;;;;;;24.70;4.27;;;10.80;1.00;;;;;;5009869;28;20246;-54
2023/05/29 05:32:57;;;;;;;17.70;3.73;;;10.90;1.00;;;;;;5002405;28;20212;-55
2023/05/29 05:35:23;;;;;;;17.03;3.87;;;11.10;1.00;;;;;;5004162;28;20517;-55
2023/05/29 05:37:49;;;;;;;14.30;3.67;;;11.00;1.00;;;;;;5004655;28;20538;-55
2023/05/29 05:40:14;;;;;;;17.53;4.20;;;11.20;1.00;;;;;;5008168;28;20991;-55
2023/05/29 05:42:40;;;;;;;10.70;4.20;;;11.20;1.00;;;;;;5012901;28;20196;-55
2023/05/29 05:45:06;;;;;;;21.57;4.00;;;11.40;1.00;;;;;;5006388;28;20532;-55
2023/05/29 05:47:32;;;;;;;20.93;3.67;;;11.50;1.00;;;;;;5009362;28;20185;-54
2023/05/29 05:49:58;;;;;;;21.43;4.00;;;11.60;1.00;;;;;;5003080;28;20551;-55
2023/05/29 05:52:30;;;;;;;17.30;3.70;;;11.70;1.00;;;;;;5004375;28;20854;-55
2023/05/29 05:54:56;;;;;;;23.27;3.60;;;11.90;1.00;;;;;;5002817;28;20201;-55
2023/05/29 05:57:22;;;;;;;18.07;4.73;;;12.10;1.00;;;;;;4995797;28;20471;-55
2023/05/29 05:59:47;;;;;;;21.97;3.93;;;12.30;1.00;;;;;;5003707;28;20608;-55
2023/05/29 06:02:13;;;;;;;14.23;3.67;;;12.30;1.00;;;;;;5002716;28;20189;-55
2023/05/29 06:04:38;;;;;;;14.10;3.50;;;12.40;1.00;;;;;;5001554;28;20195;-55
2023/05/29 06:07:04;;;;;;;23.33;3.90;;;12.60;1.00;;;;;;5003026;28;20191;-55
2023/05/29 06:09:29;;;;;;;19.10;4.37;;;12.50;1.00;;;;;;5003233;28;20192;-55
2023/05/29 06:11:55;;;;;;;19.30;4.13;;;12.50;1.00;;;;;;5004227;28;20255;-55
2023/05/29 06:14:21;;;;;;;21.47;4.00;;;12.60;1.00;;;;;;5009921;28;20224;-55
2023/05/29 06:16:46;;;;;;;18.83;4.10;;;12.70;1.00;;;;;;5005719;28;20212;-55
2023/05/29 06:19:12;;;;;;;20.67;3.57;;;12.60;1.00;;;;;;4989366;28;20192;-55
2023/05/29 06:21:38;;;;;;;24.30;3.90;;;12.80;1.00;;;;;;5004632;28;20188;-55
2023/05/29 06:24:03;;;;;;;22.73;4.10;;;13.10;1.00;;;;;;5006287;28;20267;-56
2023/05/29 06:26:29;;;;;;;19.13;3.97;;;13.30;1.00;;;;;;5006797;28;20562;-55
2023/05/29 06:28:55;;;;;;;19.40;4.60;;;13.40;1.00;;;;;;5004393;28;20193;-55
2023/05/29 06:31:20;;;;;;;19.03;3.80;;;13.70;1.00;;;;;;5005152;28;20216;-56
2023/05/29 06:33:47;;;;;;;17.13;4.57;;;13.90;1.00;;;;;;5006706;28;20505;-55
2023/05/29 06:36:13;;;;;;;20.23;4.47;;;14.10;1.00;;;;;;5009125;28;20218;-55
2023/05/29 06:38:39;;;;;;;18.70;4.03;;;14.20;1.00;;;;;;5005531;28;20450;-55
2023/05/29 06:41:04;;;;;;;15.97;4.10;;;14.40;1.00;;;;;;5003555;28;20443;-55
2023/05/29 06:43:30;;;;;;;14.70;3.77;;;14.50;1.00;;;;;;5008134;28;20223;-56
2023/05/29 06:45:55;;;;;;;15.70;3.60;;;14.60;1.00;;;;;;5005592;28;20181;-55
2023/05/29 06:48:21;;;;;;;17.23;4.00;;;14.70;1.00;;;;;;5000382;28;20586;-56
2023/05/29 06:50:50;;;;;;;14.93;3.43;;;14.50;1.00;;;;;;5003359;28;20184;-56
2023/05/29 06:53:16;;;;;;;21.27;4.57;;;14.50;1.00;;;;;;5002726;28;20331;-56
2023/05/29 06:55:41;;;;;;;15.80;4.10;;;14.50;1.00;;;;;;5004650;28;20561;-55
2023/05/29 06:58:07;;;;;;;13.57;3.50;;;14.30;1.00;;;;;;4999641;28;20196;-55
2023/05/29 07:00:32;;;;;;;24.70;4.50;;;14.60;1.00;;;;;;5005201;28;20757;-56
2023/05/29 07:02:58;;;;;;;18.77;3.93;;;15.00;1.00;;;;;;5009209;28;20189;-56
2023/05/29 07:05:24;;;;;;;17.20;4.30;;;15.10;1.00;;;;;;5009657;28;20188;-56
2023/05/29 07:07:49;;;;;;;18.30;5.00;;;15.00;1.00;;;;;;5004458;28;20713;-56
2023/05/29 07:10:15;;;;;;;19.60;4.70;;;14.90;1.00;;;;;;5002914;28;20181;-57
2023/05/29 07:12:40;;;;;;;16.57;4.13;;;14.90;1.00;;;;;;5004410;28;20220;-55
2023/05/29 07:15:06;;;;;;;15.50;3.73;;;14.90;1.00;;;;;;4998209;28;20267;-56
2023/05/29 07:17:32;;;;;;;16.57;3.77;;;14.80;1.00;;;;;;5003427;28;20189;-56
2023/05/29 07:19:58;;;;;;;16.83;4.43;;;14.90;1.00;;;;;;5006923;28;20456;-57
2023/05/29 07:22:24;;;;;;;17.67;4.20;;;15.10;1.00;;;;;;5007952;28;20195;-56
2023/05/29 07:24:50;;;;;;;24.03;3.90;;;15.20;1.00;;;;;;5008565;28;20193;-57
2023/05/29 07:27:15;;;;;;;21.47;4.00;;;15.40;1.00;;;;;;5013233;28;20486;-56
2023/05/29 07:29:41;;;;;;;17.80;3.90;;;15.40;1.00;;;;;;5007631;28;20191;-56
2023/05/29 07:32:06;;;;;;;17.53;3.77;;;15.60;1.00;;;;;;5011687;28;20216;-57
2023/05/29 07:34:32;;;;;;;19.20;4.47;;;15.90;1.00;;;;;;5012682;28;20197;-57
2023/05/29 07:37:06;;;;;;;15.37;3.80;;;15.80;1.00;;;;;;5004340;28;21022;-58
2023/05/29 07:39:33;;;;;;;20.93;4.20;;;15.60;1.00;;;;;;5006938;28;20276;-56
2023/05/29 07:42:00;;;;;;;18.83;4.30;;;15.90;1.00;;;;;;5013268;28;20431;-57
2023/05/29 07:44:26;;;;;;;13.00;3.10;;;16.30;1.00;;;;;;5010384;28;20432;-57
2023/05/29 07:46:52;;;;;;;20.83;4.20;;;16.20;1.00;;;;;;5008240;28;20433;-58
2023/05/29 07:49:17;;;;;;;18.63;4.00;;;16.10;1.00;;;;;;5006158;28;20198;-58
2023/05/29 07:51:43;;;;;;;17.57;4.60;;;16.40;1.00;;;;;;5012184;28;20224;-57
2023/05/29 07:54:08;;;;;;;16.53;3.80;;;16.80;1.00;;;;;;5003165;28;20648;-56
2023/05/29 07:56:34;;;;;;;12.83;3.63;;;16.90;1.00;;;;;;5006919;28;20298;-56
2023/05/29 07:59:00;;;;;;;12.10;3.10;;;17.10;1.00;;;;;;5008571;28;20229;-58
2023/05/29 08:01:27;;;;;;;20.30;3.67;;;17.30;1.00;;;;;;5009546;28;20198;-57
2023/05/29 08:03:52;;;;;;;10.83;3.17;;;17.60;1.00;;;;;;5006552;28;20520;-57
2023/05/29 08:06:18;;;;;;;17.13;4.23;;;17.70;1.00;;;;;;5007839;28;20644;-57
2023/05/29 08:08:44;;;;;;;13.53;3.73;;;17.80;1.00;;;;;;5006881;28;20192;-56
2023/05/29 08:11:10;;;;;;;14.20;3.80;;;17.80;1.00;;;;;;5008108;28;20458;-58
2023/05/29 08:13:36;;;;;;;17.57;4.00;;;18.00;1.00;;;;;;5007565;28;20226;-57
2023/05/29 08:16:02;;;;;;;14.53;3.63;;;18.10;1.00;;;;;;5007075;28;20476;-57
2023/05/29 08:18:31;;;;;;;10.07;3.17;;;18.10;1.00;;;;;;5015578;28;20457;-56
2023/05/29 08:20:57;;;;;;;14.90;3.83;;;17.90;1.00;;;;;;5008979;28;20964;-57
2023/05/29 08:23:23;;;;;;;17.23;4.07;;;18.20;1.00;;;;;;5008553;28;20940;-57
2023/05/29 08:25:48;;;;;;;15.43;3.73;;;18.20;1.00;;;;;;4998529;28;20431;-55
2023/05/29 08:28:15;;;;;;;13.60;3.93;;;18.30;1.00;;;;;;5003388;28;20612;-57
2023/05/29 08:30:41;;;;;;;17.07;3.93;;;18.50;1.00;;;;;;5007631;28;20749;-57
2023/05/29 08:33:06;;;;;;;16.47;4.40;;;18.70;1.00;;;;;;5010920;28;20492;-56
2023/05/29 08:35:32;;;;;;;16.70;3.80;;;18.90;1.00;;;;;;5005659;28;20849;-55
2023/05/29 08:37:58;;;;;;;15.33;3.43;;;19.00;1.00;;;;;;5007805;28;20248;-56
2023/05/29 08:40:24;;;;;;;15.40;3.90;;;19.10;1.00;;;;;;5004663;28;20433;-57
2023/05/29 08:43:16;;;;;;;12.10;3.80;;;19.30;99.90;;;;;;5008238;28;20440;-57
2023/05/29 08:45:45;;;;;;;10.73;3.63;;;19.60;1.00;;;;;;5009219;28;20217;-56
2023/05/29 08:48:12;;;;;;;16.70;4.15;;;19.70;99.90;;;;;;5000967;28;20474;-57
2023/05/29 08:50:48;;;;;;;18.97;4.13;;;19.80;99.90;;;;;;5008228;28;20508;-57
2023/05/29 08:53:15;;;;;;;15.97;3.70;;;19.90;99.90;;;;;;5009243;28;21020;-57
2023/05/29 08:55:41;;;;;;;13.20;3.90;;;20.20;99.90;;;;;;5003657;28;20552;-57
2023/05/29 08:58:06;;;;;;;10.17;3.00;;;20.40;99.90;;;;;;5004163;28;20982;-57
2023/05/29 09:00:33;;;;;;;11.50;4.27;;;20.70;99.90;;;;;;5010368;28;20186;-56
2023/05/29 09:03:02;;;;;;;16.67;3.90;;;20.90;99.90;;;;;;5005956;28;20197;-57
2023/05/29 09:05:29;;;;;;;20.80;3.93;;;20.70;99.90;;;;;;5003231;28;20453;-57
2023/05/29 09:07:55;;;;;;;18.13;3.67;;;20.40;99.90;;;;;;5009071;28;20469;-56
2023/05/29 09:10:22;;;;;;;17.27;4.40;;;20.60;99.90;;;;;;5022433;28;20454;-56
2023/05/29 09:12:50;;;;;;;12.93;3.77;;;20.70;99.90;;;;;;5005947;28;20480;-55
2023/05/29 09:15:23;;;;;;;12.40;3.53;;;20.90;99.90;;;;;;5005206;28;20806;-57
2023/05/29 09:17:59;;;;;;;12.23;3.83;;;20.70;99.90;;;;;;5003685;28;20939;-57
2023/05/29 09:20:26;;;;;;;12.13;3.00;;;20.80;99.90;;;;;;5003433;28;20436;-56
2023/05/29 09:22:54;;;;;;;16.97;4.00;;;20.70;99.90;;;;;;4999980;28;20443;-56
2023/05/29 09:25:24;;;;;;;18.80;4.53;;;21.20;99.90;;;;;;4997940;28;20451;-56
2023/05/29 09:27:56;;;;;;;14.53;4.17;;;21.60;99.90;;;;;;5005204;28;20561;-56
2023/05/29 09:30:42;;;;;;;26.20;11.83;;;21.80;99.90;;;;;;4991214;28;20432;-56
2023/05/29 09:33:09;;;;;;;42.20;18.37;;;22.10;99.90;;;;;;5003778;28;20518;-57
2023/05/29 09:35:42;;;;;;;10.80;3.17;;;22.20;99.90;;;;;;5008941;28;20798;-57
2023/05/29 09:38:09;;;;;;;11.77;4.30;;;21.80;99.90;;;;;;5003212;28;20454;-56
2023/05/29 09:40:40;;;;;;;11.27;3.40;;;22.30;99.90;;;;;;5003491;28;20444;-56
2023/05/29 09:43:11;;;;;;;13.30;3.43;;;22.60;99.90;;;;;;4996520;28;20440;-56
2023/05/29 09:45:40;;;;;;;10.60;3.50;;;22.70;99.90;;;;;;5006951;28;20455;-56
2023/05/29 09:48:08;;;;;;;11.73;3.37;;;22.80;99.90;;;;;;5001062;28;20464;-57
2023/05/29 09:50:34;;;;;;;12.93;3.90;;;23.10;99.90;;;;;;5003840;28;20443;-54
2023/05/29 09:53:01;;;;;;;14.40;4.30;;;23.30;99.90;;;;;;5002237;28;20505;-57
2023/05/29 09:55:28;;;;;;;22.37;3.90;;;23.20;99.90;;;;;;5002090;28;20476;-56
2023/05/29 09:57:54;;;;;;;15.40;3.67;;;23.20;99.90;;;;;;5007442;28;20496;-56
2023/05/29 10:00:21;;;;;;;12.70;3.80;;;23.20;99.90;;;;;;5004914;28;20458;-56
2023/05/29 10:02:48;;;;;;;17.77;4.50;;;22.90;99.90;;;;;;5006036;28;20446;-56
2023/05/29 10:05:15;;;;;;;13.37;3.47;;;22.90;99.90;;;;;;5002734;28;20482;-56
2023/05/29 10:07:46;;;;;;;9.20;2.97;;;22.60;99.90;;;;;;5011780;28;20799;-55
2023/05/29 10:10:13;;;;;;;11.50;3.30;;;22.90;99.90;;;;;;5002854;28;20473;-56
2023/05/29 10:12:44;;;;;;;13.20;3.13;;;23.20;99.90;;;;;;5008857;28;20476;-56
2023/05/29 10:15:15;;;;;;;11.57;2.67;;;23.40;99.90;;;;;;5010425;28;20532;-55
2023/05/29 10:17:56;;;;;;;9.63;3.27;;;22.80;99.90;;;;;;5008335;28;20540;-56
2023/05/29 10:20:23;;;;;;;10.73;3.57;;;23.20;99.90;;;;;;5007480;28;20953;-56
2023/05/29 10:22:53;;;;;;;14.10;3.73;;;23.00;99.90;;;;;;5002263;28;20445;-56
2023/05/29 10:25:21;;;;;;;18.10;3.47;;;22.90;99.90;;;;;;5004037;28;20532;-55
2023/05/29 10:27:48;;;;;;;11.13;3.50;;;22.90;99.90;;;;;;5002965;28;20442;-56
2023/05/29 10:30:32;;;;;;;14.30;3.40;;;23.00;99.90;;;;;;5004251;28;21014;-54
2023/05/29 10:33:29;;;;;;;14.40;3.67;;;23.30;99.90;;;;;;5006295;28;20493;-57
2023/05/29 10:36:03;;;;;;;12.07;3.27;;;23.40;99.90;;;;;;5003488;28;20810;-56
2023/05/29 10:38:29;;;;;;;14.33;3.50;;;23.20;99.90;;;;;;5003686;28;20533;-57
2023/05/29 10:40:55;;;;;;;11.83;3.50;;;22.70;99.90;;;;;;5003623;28;20918;-56
2023/05/29 10:43:33;;;;;;;13.27;3.57;;;22.90;99.90;;;;;;5001664;28;20183;-56
2023/05/29 10:46:00;;;;;;;13.40;3.60;;;23.40;99.90;;;;;;5001646;28;20540;-56
2023/05/29 10:48:28;;;;;;;11.60;3.47;;;24.00;99.90;;;;;;5006697;28;20462;-54
2023/05/29 10:50:55;;;;;;;13.53;3.50;;;24.50;99.90;;;;;;5004238;28;20442;-54
2023/05/29 10:53:26;;;;;;;11.67;4.10;;;25.20;99.90;;;;;;5005026;28;20593;-54
2023/05/29 10:55:52;;;;;;;9.87;3.30;;;25.60;99.90;;;;;;5006162;28;20471;-54
2023/05/29 10:58:24;;;;;;;8.97;3.40;;;25.40;99.90;;;;;;5001228;28;20495;-54
2023/05/29 11:00:50;;;;;;;10.30;3.43;;;25.30;99.90;;;;;;5002187;28;21025;-55
2023/05/29 11:03:31;;;;;;;12.20;3.23;;;25.40;99.90;;;;;;5006113;28;20477;-54
2023/05/29 11:06:17;;;;;;;13.57;3.17;;;25.90;99.90;;;;;;4998561;28;20432;-55
2023/05/29 11:08:52;;;;;;;14.07;3.53;;;26.20;99.90;;;;;;5000031;28;20585;-54
2023/05/29 11:11:27;;;;;;;8.10;3.13;;;25.90;99.90;;;;;;5008110;28;20436;-54
2023/05/29 11:13:54;;;;;;;14.37;2.93;;;25.70;99.90;;;;;;5003525;28;20943;-53
2023/05/29 11:16:28;;;;;;;9.03;2.67;;;26.00;99.90;;;;;;5000794;28;20959;-54
2023/05/29 11:18:54;;;;;;;11.60;3.17;;;26.10;99.90;;;;;;5002668;28;20957;-54
2023/05/29 11:21:52;;;;;;;7.73;2.90;;;26.10;99.90;;;;;;5001932;28;20446;-54
2023/05/29 11:24:25;;;;;;;13.50;4.20;;;26.30;99.90;;;;;;5003574;28;20540;-54
2023/05/29 11:26:55;;;;;;;12.47;3.87;;;26.20;99.90;;;;;;5003963;28;20448;-54
2023/05/29 11:29:22;;;;;;;16.30;3.80;;;26.10;99.90;;;;;;5003537;28;20438;-54
2023/05/29 11:31:54;;;;;;;7.80;3.13;;;26.10;99.90;;;;;;5007081;28;20509;-54
2023/05/29 11:34:21;;;;;;;8.83;3.13;;;26.20;99.90;;;;;;5001244;28;20463;-54
2023/05/29 11:36:48;;;;;;;8.90;3.33;;;26.40;99.90;;;;;;5003531;28;20442;-53
2023/05/29 11:39:14;;;;;;;8.83;2.67;;;26.50;99.90;;;;;;5002856;28;20988;-54
2023/05/29 11:41:40;;;;;;;6.80;3.20;;;26.60;99.90;;;;;;5003245;28;20433;-53
2023/05/29 11:44:06;;;;;;;5.00;2.70;;;26.80;99.90;;;;;;5006561;28;20180;-54
2023/05/29 11:46:32;;;;;;;12.30;3.30;;;27.00;99.90;;;;;;5003861;28;20559;-54
2023/05/29 11:48:59;;;;;;;11.10;3.20;;;27.30;99.90;;;;;;5003463;28;20928;-54
2023/05/29 11:51:25;;;;;;;12.00;3.87;;;27.00;99.90;;;;;;4999691;28;20509;-54
2023/05/29 11:53:53;;;;;;;12.17;2.97;;;27.00;99.90;;;;;;5003203;28;20446;-54
2023/05/29 11:56:19;;;;;;;10.23;3.20;;;27.00;99.90;;;;;;4999793;28;20479;-55
2023/05/29 11:58:45;;;;;;;11.73;3.23;;;27.40;99.90;;;;;;5003312;28;20481;-54
2023/05/29 12:01:11;;;;;;;7.37;3.00;;;27.10;99.90;;;;;;5003460;28;20440;-54
2023/05/29 12:03:40;;;;;;;11.93;3.20;;;27.00;99.90;;;;;;5004713;28;20488;-54
2023/05/29 12:06:07;;;;;;;9.73;2.77;;;26.90;99.90;;;;;;5007898;28;20268;-54
2023/05/29 12:08:33;;;;;;;9.33;2.80;;;26.60;99.90;;;;;;5006111;28;20449;-54
2023/05/29 12:10:59;;;;;;;6.27;2.80;;;26.20;99.90;;;;;;5007060;28;20530;-53
2023/05/29 12:13:25;;;;;;;10.00;3.10;;;26.30;99.90;;;;;;5004372;28;20475;-54
2023/05/29 12:15:56;;;;;;;13.93;3.70;;;26.40;99.90;;;;;;5006565;28;20440;-54
2023/05/29 12:18:22;;;;;;;8.83;2.80;;;26.60;99.90;;;;;;5005080;28;20187;-54
2023/05/29 12:20:48;;;;;;;9.00;2.90;;;26.60;99.90;;;;;;5007223;28;20837;-54
2023/05/29 12:23:13;;;;;;;7.70;2.90;;;26.40;99.90;;;;;;5006071;28;20471;-54
2023/05/29 12:25:39;;;;;;;8.73;3.00;;;26.70;99.90;;;;;;5002935;28;20283;-54
2023/05/29 12:28:05;;;;;;;7.93;2.80;;;26.40;99.90;;;;;;5008238;28;20184;-54
2023/05/29 12:30:36;;;;;;;12.33;3.03;;;26.50;99.90;;;;;;5003803;28;20947;-54
2023/05/29 12:33:02;;;;;;;7.47;3.03;;;26.70;99.90;;;;;;5008314;28;20219;-54
2023/05/29 12:35:29;;;;;;;9.30;3.00;;;26.90;99.90;;;;;;5004389;28;20471;-54
2023/05/29 12:38:00;;;;;;;8.07;3.00;;;27.40;99.90;;;;;;5006504;28;20482;-54
2023/05/29 12:40:28;;;;;;;11.40;3.17;;;27.00;99.90;;;;;;5005699;28;20447;-54
2023/05/29 12:42:56;;;;;;;9.77;3.40;;;27.10;99.90;;;;;;5008389;28;20438;-54
2023/05/29 12:45:27;;;;;;;8.97;3.50;;;27.30;99.90;;;;;;5009423;28;20783;-54
2023/05/29 12:48:11;;;;;;;10.37;3.40;;;27.00;99.90;;;;;;5009354;28;20436;-54